< < Back
Terminal Aerodrome Forecast


Current Version              Previous Versions:   1  2  3  4  5  6  7  8  9  

Terminal Aerodrome Forecast

223
FTUS42 KCHS 310800 CCA
TAFCHS
TAF COR
KCHS 310853Z 3108/0106 01006KT 6SM BR SCT045
     FM311400 35008KT P6SM SCT045
     FM312300 VRB04KT P6SM SCT045=



Latest METAR

872
SAUS80 KWBC 311000 RRB
MTRCHS
METAR KCHS 310956Z 03006KT 10SM BKN049 14/11 A2988 RMK AO2 SLP119
T01390106


USA.gov is the U.S. government's official web portal to all federal, state and local government web resources and services.